createdAt,value
2023-04-18T00:01:28.843Z,7.36
2023-04-18T00:03:55.971Z,7.39
2023-04-18T00:06:22.549Z,7.32
2023-04-18T00:08:49.210Z,7.35
2023-04-18T00:11:15.784Z,7.44
2023-04-18T00:13:42.334Z,7.35
2023-04-18T00:16:09.271Z,7.30
2023-04-18T00:18:36.924Z,7.39
2023-04-18T00:21:04.373Z,7.29
2023-04-18T00:23:31.133Z,7.33
2023-04-18T00:25:57.616Z,7.35
2023-04-18T00:28:24.208Z,7.37
2023-04-18T00:30:50.971Z,7.34
2023-04-18T00:33:18.445Z,7.37
2023-04-18T00:35:44.923Z,7.33
2023-04-18T00:38:11.462Z,7.35
2023-04-18T00:40:38.821Z,7.35
2023-04-18T00:43:07.497Z,7.38
2023-04-18T00:45:34.189Z,7.37
2023-04-18T00:48:00.830Z,7.34
2023-04-18T00:50:27.624Z,7.39
2023-04-18T00:52:54.757Z,7.28
2023-04-18T00:55:21.667Z,7.36
2023-04-18T00:57:48.192Z,7.33
2023-04-18T01:00:15.186Z,7.37
2023-04-18T01:02:41.898Z,7.33
2023-04-18T01:05:08.781Z,7.39
2023-04-18T01:07:37.391Z,7.33
2023-04-18T01:10:04.361Z,7.44
2023-04-18T01:12:31.306Z,7.37
2023-04-18T01:14:58.836Z,7.28
2023-04-18T01:17:25.545Z,7.36
2023-04-18T01:19:52.016Z,7.35
2023-04-18T01:22:19.712Z,7.34
2023-04-18T01:24:46.306Z,7.27
2023-04-18T01:27:15.707Z,7.22
2023-04-18T01:29:42.156Z,7.29
2023-04-18T01:32:08.674Z,7.25
2023-04-18T01:34:35.264Z,7.37
2023-04-18T01:37:01.752Z,7.30
2023-04-18T01:39:28.599Z,7.27
2023-04-18T01:41:55.141Z,7.25
2023-04-18T01:44:21.612Z,7.26
2023-04-18T01:46:48.156Z,7.40
2023-04-18T01:49:14.730Z,7.43
2023-04-18T01:51:42.221Z,7.30
2023-04-18T01:54:08.727Z,7.27
2023-04-18T01:56:35.244Z,7.34
2023-04-18T01:59:01.738Z,7.31
2023-04-18T02:01:28.285Z,7.31
2023-04-18T02:03:55.006Z,7.28
2023-04-18T02:06:21.837Z,7.35
2023-04-18T02:08:48.309Z,7.36
2023-04-18T02:11:14.777Z,7.36
2023-04-18T02:13:41.278Z,7.31
2023-04-18T02:16:12.732Z,7.41
2023-04-18T02:18:39.430Z,7.36
2023-04-18T02:21:05.888Z,7.36
2023-04-18T02:23:32.449Z,7.36
2023-04-18T02:25:58.906Z,7.31
2023-04-18T02:28:25.372Z,7.27
2023-04-18T02:30:51.966Z,7.22
2023-04-18T02:33:18.435Z,7.26
2023-04-18T02:35:44.924Z,7.30
2023-04-18T02:38:11.499Z,7.35
2023-04-18T02:40:37.984Z,7.31
2023-04-18T02:43:04.538Z,7.38
2023-04-18T02:45:31.196Z,7.27
2023-04-18T02:47:57.726Z,7.38
2023-04-18T02:50:24.902Z,7.34
2023-04-18T02:52:51.430Z,7.39
2023-04-18T02:55:18.004Z,7.37
2023-04-18T02:57:44.512Z,7.30
2023-04-18T03:00:11.892Z,7.38
2023-04-18T03:02:38.410Z,7.36
2023-04-18T03:05:06.173Z,7.39
2023-04-18T03:07:32.877Z,7.42
2023-04-18T03:09:59.965Z,7.28
2023-04-18T03:12:26.536Z,7.37
2023-04-18T03:14:53.019Z,7.37
2023-04-18T03:17:19.666Z,7.33
2023-04-18T03:19:46.535Z,7.44
2023-04-18T03:22:13.989Z,7.33
2023-04-18T03:24:40.537Z,7.36
2023-04-18T03:27:07.203Z,7.38
2023-04-18T03:29:33.983Z,7.33
2023-04-18T03:32:00.474Z,7.37
2023-04-18T03:34:27.177Z,7.37
2023-04-18T03:36:54.108Z,7.43
2023-04-18T03:39:20.623Z,7.36
2023-04-18T03:41:47.139Z,7.34
2023-04-18T03:44:13.740Z,7.39
2023-04-18T03:46:40.724Z,7.43
2023-04-18T03:49:07.337Z,7.38
2023-04-18T03:51:43.380Z,7.41
2023-04-18T03:54:10.009Z,7.42
2023-04-18T03:56:36.540Z,7.41
2023-04-18T03:59:03.007Z,7.40
2023-04-18T04:01:29.731Z,7.53
2023-04-18T04:03:56.378Z,7.51
2023-04-18T04:06:23.097Z,7.49
2023-04-18T04:08:49.616Z,7.51
2023-04-18T04:11:17.519Z,7.44
2023-04-18T04:13:44.085Z,7.46
2023-04-18T04:16:11.542Z,7.60
2023-04-18T04:18:38.019Z,7.54
2023-04-18T04:21:05.301Z,7.57
2023-04-18T04:23:31.798Z,7.65
2023-04-18T04:25:58.738Z,7.68
2023-04-18T04:28:26.321Z,7.64
2023-04-18T04:30:53.323Z,7.72
2023-04-18T04:33:20.832Z,7.71
2023-04-18T04:35:47.755Z,7.66
2023-04-18T04:38:15.485Z,7.66
2023-04-18T04:40:42.666Z,7.71
2023-04-18T04:43:16.573Z,7.75
2023-04-18T04:45:44.704Z,7.66
2023-04-18T04:48:14.486Z,7.71
2023-04-18T04:50:41.941Z,7.76
2023-04-18T04:53:08.981Z,7.72
2023-04-18T04:55:38.711Z,7.69
2023-04-18T04:58:05.512Z,7.74
2023-04-18T05:00:32.097Z,7.80
2023-04-18T05:02:58.872Z,7.89
2023-04-18T05:05:25.441Z,7.92
2023-04-18T05:07:52.145Z,7.91
2023-04-18T05:10:18.724Z,7.86
2023-04-18T05:12:45.447Z,7.96
2023-04-18T05:15:12.760Z,7.95
2023-04-18T05:17:39.432Z,8.08
2023-04-18T05:20:06.499Z,8.00
2023-04-18T05:22:33.049Z,8.02
2023-04-18T05:24:59.760Z,8.05
2023-04-18T05:27:26.350Z,8.07
2023-04-18T05:29:52.973Z,8.13
2023-04-18T05:32:19.557Z,8.17
2023-04-18T05:34:46.283Z,8.32
2023-04-18T05:37:12.799Z,8.45
2023-04-18T05:39:40.367Z,8.60
2023-04-18T05:42:06.862Z,8.70
2023-04-18T05:44:33.440Z,8.76
2023-04-18T05:47:00.515Z,8.84
2023-04-18T05:49:26.956Z,8.90
2023-04-18T05:51:53.418Z,8.97
2023-04-18T05:54:23.014Z,8.94
2023-04-18T05:56:49.773Z,9.00
2023-04-18T05:59:16.316Z,8.79
2023-04-18T06:01:42.915Z,8.84
2023-04-18T06:04:10.335Z,8.87
2023-04-18T06:06:36.974Z,8.87
2023-04-18T06:09:03.757Z,8.96
2023-04-18T06:11:33.551Z,9.06
2023-04-18T06:14:00.138Z,9.11
2023-04-18T06:16:26.861Z,9.33
2023-04-18T06:18:53.512Z,9.24
2023-04-18T06:21:21.234Z,9.36
2023-04-18T06:23:48.023Z,9.51
2023-04-18T06:26:14.622Z,9.61
2023-04-18T06:28:41.170Z,9.76
2023-04-18T06:31:08.583Z,9.79
2023-04-18T06:33:37.685Z,9.88
2023-04-18T06:36:05.421Z,9.76
2023-04-18T06:38:32.634Z,9.61
2023-04-18T06:40:59.118Z,9.77
2023-04-18T06:43:25.710Z,9.60
2023-04-18T06:45:52.225Z,9.56
2023-04-18T06:48:18.745Z,9.64
2023-04-18T06:50:45.637Z,9.55
2023-04-18T06:53:12.339Z,9.50
2023-04-18T06:55:38.906Z,9.43
2023-04-18T06:58:05.800Z,9.36
2023-04-18T07:00:32.332Z,9.37
2023-04-18T07:02:59.199Z,9.52
2023-04-18T07:05:25.796Z,9.55
2023-04-18T07:07:52.262Z,9.54
2023-04-18T07:10:18.758Z,9.44
2023-04-18T07:12:45.339Z,9.65
2023-04-18T07:15:12.217Z,9.40
2023-04-18T07:17:38.712Z,9.58
2023-04-18T07:20:05.930Z,9.60
2023-04-18T07:22:32.425Z,9.73
2023-04-18T07:24:58.886Z,9.81
2023-04-18T07:27:26.050Z,9.81
2023-04-18T07:29:52.526Z,9.86
2023-04-18T07:32:19.022Z,10.03
2023-04-18T07:34:45.538Z,9.95
2023-04-18T07:37:14.757Z,9.98
2023-04-18T07:39:41.682Z,10.00
2023-04-18T07:42:08.498Z,10.17
2023-04-18T07:44:35.639Z,10.33
2023-04-18T07:47:02.339Z,10.30
2023-04-18T07:49:28.834Z,10.50
2023-04-18T07:51:55.928Z,10.85
2023-04-18T07:54:22.644Z,11.13
2023-04-18T07:56:49.201Z,11.44
2023-04-18T07:59:16.159Z,11.71
2023-04-18T08:01:42.941Z,12.16
2023-04-18T08:04:11.020Z,12.22
2023-04-18T08:06:37.796Z,12.45
2023-04-18T08:09:06.005Z,12.18
2023-04-18T08:11:33.867Z,12.32
2023-04-18T08:14:00.705Z,12.68
2023-04-18T08:16:27.568Z,13.07
2023-04-18T08:18:54.322Z,13.99
2023-04-18T08:21:22.393Z,14.87
2023-04-18T08:23:49.152Z,14.80
2023-04-18T08:26:15.861Z,15.31
2023-04-18T08:28:45.961Z,15.17
2023-04-18T08:31:14.542Z,15.13
2023-04-18T08:33:41.422Z,15.14
2023-04-18T08:36:08.234Z,15.59
2023-04-18T08:38:34.895Z,16.13
2023-04-18T08:41:01.622Z,16.05
2023-04-18T08:43:30.311Z,15.96
2023-04-18T08:46:00.792Z,15.93
2023-04-18T08:48:30.596Z,15.83
2023-04-18T08:50:59.919Z,15.37
2023-04-18T08:53:26.978Z,15.38
2023-04-18T08:55:57.254Z,15.64
2023-04-18T08:58:25.635Z,15.46
2023-04-18T09:00:53.746Z,15.38
2023-04-18T09:03:39.156Z,15.63
2023-04-18T09:06:19.453Z,15.10
2023-04-18T09:08:59.112Z,15.10
2023-04-18T09:11:29.528Z,15.30
2023-04-18T09:13:58.929Z,15.60
2023-04-18T09:16:27.739Z,15.63
2023-04-18T09:19:18.621Z,16.35
2023-04-18T09:21:48.980Z,16.25
2023-04-18T09:24:30.838Z,15.96
2023-04-18T09:26:58.729Z,15.96
2023-04-18T09:29:58.110Z,16.00
2023-04-18T09:32:27.212Z,15.97
2023-04-18T09:34:58.134Z,16.19
2023-04-18T09:37:26.230Z,16.10
2023-04-18T09:39:53.166Z,16.04
2023-04-18T09:42:20.231Z,16.41
2023-04-18T09:45:07.870Z,16.41
2023-04-18T09:47:36.729Z,16.06
2023-04-18T09:50:04.903Z,16.06
2023-04-18T09:52:34.955Z,15.84
2023-04-18T09:55:04.221Z,15.66
2023-04-18T09:57:32.464Z,15.32
2023-04-18T10:00:08.791Z,15.26
2023-04-18T10:02:52.279Z,15.23
2023-04-18T10:05:25.312Z,15.01
2023-04-18T10:07:52.985Z,14.90
2023-04-18T10:10:19.908Z,15.06
2023-04-18T10:12:48.814Z,14.98
2023-04-18T10:15:16.506Z,14.97
2023-04-18T10:18:03.733Z,14.82
2023-04-18T10:20:32.992Z,14.77
2023-04-18T10:23:00.145Z,14.65
2023-04-18T10:25:38.463Z,14.79
2023-04-18T10:28:06.621Z,14.69
2023-04-18T10:30:42.136Z,14.47
2023-04-18T10:33:31.137Z,14.37
2023-04-18T10:36:00.265Z,14.43
2023-04-18T10:38:27.324Z,14.16
2023-04-18T10:41:15.814Z,14.19
2023-04-18T10:44:11.381Z,14.31
2023-04-18T10:46:43.022Z,14.45
2023-04-18T10:49:38.404Z,14.45
2023-04-18T10:52:08.564Z,14.35
2023-04-18T10:54:41.721Z,14.52
2023-04-18T10:57:08.979Z,14.64
2023-04-18T10:59:41.813Z,14.58
2023-04-18T11:02:11.962Z,14.56
2023-04-18T11:04:39.356Z,14.39
2023-04-18T11:07:06.069Z,14.58
2023-04-18T11:09:32.609Z,14.83
2023-04-18T11:12:11.290Z,14.72
2023-04-18T11:14:46.070Z,14.49
2023-04-18T11:17:26.892Z,14.51
2023-04-18T11:20:01.456Z,14.33
2023-04-18T11:22:28.089Z,14.32
2023-04-18T11:25:01.986Z,14.48
2023-04-18T11:27:29.680Z,14.73
2023-04-18T11:29:56.918Z,14.68
2023-04-18T11:32:24.380Z,14.90
2023-04-18T11:34:53.334Z,14.95
2023-04-18T11:37:20.594Z,15.03
2023-04-18T11:39:47.374Z,15.12
2023-04-18T11:42:14.350Z,15.12
2023-04-18T11:44:45.876Z,15.20
2023-04-18T11:47:24.751Z,15.39
2023-04-18T11:50:00.208Z,15.64
2023-04-18T11:52:28.307Z,15.37
2023-04-18T11:54:56.569Z,15.57
2023-04-18T11:57:28.272Z,15.52
2023-04-18T11:59:57.318Z,15.17
2023-04-18T12:02:25.361Z,15.11
2023-04-18T12:04:54.374Z,15.26
2023-04-18T12:07:41.928Z,15.12
2023-04-18T12:10:29.606Z,15.22
2023-04-18T12:13:00.921Z,15.42
2023-04-18T12:15:29.565Z,15.42
2023-04-18T12:18:00.707Z,15.10
2023-04-18T12:20:40.437Z,14.85
2023-04-18T12:23:07.727Z,14.91
2023-04-18T12:25:35.032Z,14.95
2023-04-18T12:28:04.237Z,14.95
2023-04-18T12:30:34.156Z,14.99
2023-04-18T12:33:03.900Z,14.93
2023-04-18T12:35:31.717Z,15.00
2023-04-18T12:37:59.977Z,15.35
2023-04-18T12:40:26.873Z,15.51
2023-04-18T12:42:54.661Z,15.91
2023-04-18T12:45:22.758Z,15.62
2023-04-18T12:47:50.740Z,15.39
2023-04-18T12:50:19.963Z,15.53
2023-04-18T12:52:47.228Z,15.66
2023-04-18T12:55:14.455Z,15.89
2023-04-18T12:57:43.721Z,15.43
2023-04-18T13:00:12.899Z,15.21
2023-04-18T13:02:46.298Z,15.41
2023-04-18T13:05:14.991Z,15.59
2023-04-18T13:07:42.750Z,15.62
2023-04-18T13:10:14.084Z,15.43
2023-04-18T13:12:41.638Z,15.51
2023-04-18T13:15:10.336Z,15.55
2023-04-18T13:17:37.830Z,15.49
2023-04-18T13:20:11.728Z,15.59
2023-04-18T13:22:39.249Z,15.65
2023-04-18T13:25:07.244Z,15.63
2023-04-18T13:27:34.199Z,15.52
2023-04-18T13:30:01.257Z,15.41
2023-04-18T13:32:27.975Z,15.42
2023-04-18T13:34:56.080Z,15.46
2023-04-18T13:37:23.786Z,15.55
2023-04-18T13:39:50.864Z,15.71
2023-04-18T13:42:19.446Z,15.83
2023-04-18T13:44:46.686Z,15.77
2023-04-18T13:47:13.393Z,15.89
2023-04-18T13:49:40.829Z,15.61
2023-04-18T13:52:07.658Z,15.96
2023-04-18T13:54:34.533Z,15.90
2023-04-18T13:57:03.146Z,15.92
2023-04-18T13:59:33.184Z,15.86
2023-04-18T14:02:00.040Z,15.52
2023-04-18T14:04:27.413Z,15.49
2023-04-18T14:06:54.331Z,15.76
2023-04-18T14:09:20.901Z,15.87
2023-04-18T14:11:47.628Z,15.87
2023-04-18T14:14:14.865Z,16.14
2023-04-18T14:16:41.721Z,16.18
2023-04-18T14:19:08.347Z,16.04
2023-04-18T14:21:35.381Z,16.02
2023-04-18T14:24:02.056Z,15.77
2023-04-18T14:26:28.697Z,15.58
2023-04-18T14:28:55.179Z,15.51
2023-04-18T14:31:22.826Z,15.77
2023-04-18T14:33:49.486Z,15.86
2023-04-18T14:36:17.011Z,15.63
2023-04-18T14:38:47.651Z,15.70
2023-04-18T14:41:14.134Z,15.75
2023-04-18T14:43:40.780Z,15.72
2023-04-18T14:46:16.161Z,15.73
2023-04-18T14:48:45.171Z,15.69
2023-04-18T14:51:12.238Z,15.45
2023-04-18T14:53:39.067Z,15.59
2023-04-18T14:56:05.941Z,15.56
2023-04-18T14:58:32.824Z,15.78
2023-04-18T15:00:59.571Z,15.59
2023-04-18T15:03:26.249Z,15.49
2023-04-18T15:05:53.281Z,15.39
2023-04-18T15:08:19.931Z,15.41
2023-04-18T15:10:47.567Z,15.28
2023-04-18T15:13:14.122Z,15.16
2023-04-18T15:15:41.048Z,15.07
2023-04-18T15:18:08.619Z,15.09
2023-04-18T15:20:36.999Z,15.16
2023-04-18T15:23:03.858Z,15.03
2023-04-18T15:25:31.045Z,15.00
2023-04-18T15:27:58.423Z,15.02
2023-04-18T15:30:25.448Z,14.94
2023-04-18T15:32:52.282Z,14.87
2023-04-18T15:35:19.045Z,14.85
2023-04-18T15:37:45.680Z,14.84
2023-04-18T15:40:16.276Z,14.91
2023-04-18T15:42:43.678Z,14.80
2023-04-18T15:45:11.670Z,14.57
2023-04-18T15:47:38.990Z,14.69
2023-04-18T15:50:06.947Z,14.70
2023-04-18T15:52:33.515Z,14.72
2023-04-18T15:55:00.714Z,14.62
2023-04-18T15:57:29.640Z,14.65
2023-04-18T15:59:56.710Z,14.64
2023-04-18T16:02:23.529Z,14.55
2023-04-18T16:04:50.378Z,14.65
2023-04-18T16:07:17.032Z,14.60
2023-04-18T16:09:43.666Z,14.65
2023-04-18T16:12:11.400Z,14.54
2023-04-18T16:14:37.973Z,14.60
2023-04-18T16:17:04.771Z,14.52
2023-04-18T16:19:33.325Z,14.50
2023-04-18T16:22:00.999Z,14.47
2023-04-18T16:24:27.715Z,14.51
2023-04-18T16:26:55.559Z,14.44
2023-04-18T16:29:22.503Z,14.48
2023-04-18T16:31:51.355Z,14.50
2023-04-18T16:34:18.283Z,14.44
2023-04-18T16:36:44.880Z,14.54
2023-04-18T16:39:12.167Z,14.50
2023-04-18T16:41:38.779Z,14.42
2023-04-18T16:44:05.344Z,14.35
2023-04-18T16:46:32.336Z,14.38
2023-04-18T16:48:59.299Z,14.29
2023-04-18T16:51:26.454Z,14.31
2023-04-18T16:53:53.337Z,14.29
2023-04-18T16:56:19.907Z,14.38
2023-04-18T16:58:46.990Z,14.16
2023-04-18T17:01:14.250Z,14.29
2023-04-18T17:03:42.695Z,14.21
2023-04-18T17:06:10.878Z,14.23
2023-04-18T17:08:38.141Z,14.19
2023-04-18T17:11:05.996Z,14.19
2023-04-18T17:13:32.887Z,14.04
2023-04-18T17:16:01.777Z,14.01
2023-04-18T17:18:29.651Z,13.98
2023-04-18T17:20:56.182Z,13.98
2023-04-18T17:23:23.051Z,13.95
2023-04-18T17:25:49.760Z,13.85
2023-04-18T17:28:16.409Z,13.99
2023-04-18T17:30:43.152Z,13.91
2023-04-18T17:33:11.667Z,13.85
2023-04-18T17:35:41.506Z,13.81
2023-04-18T17:38:11.597Z,13.87
2023-04-18T17:40:39.446Z,13.80
2023-04-18T17:43:06.261Z,13.75
2023-04-18T17:45:32.956Z,13.80
2023-04-18T17:48:02.274Z,13.86
2023-04-18T17:50:29.146Z,13.84
2023-04-18T17:52:56.135Z,13.85
2023-04-18T17:55:22.858Z,13.82
2023-04-18T17:57:49.468Z,13.77
2023-04-18T18:00:22.156Z,13.57
2023-04-18T18:02:49.154Z,13.64
2023-04-18T18:05:16.785Z,13.62
2023-04-18T18:07:48.617Z,13.67
2023-04-18T18:10:20.719Z,13.51
2023-04-18T18:12:47.416Z,13.50
2023-04-18T18:15:14.157Z,13.55
2023-04-18T18:17:40.885Z,13.72
2023-04-18T18:20:10.345Z,13.49
2023-04-18T18:22:37.324Z,13.53
2023-04-18T18:25:05.433Z,13.43
2023-04-18T18:27:32.305Z,13.50
2023-04-18T18:29:58.865Z,13.44
2023-04-18T18:32:26.868Z,13.45
2023-04-18T18:34:53.562Z,13.34
2023-04-18T18:37:20.311Z,13.31
2023-04-18T18:39:46.855Z,13.36
2023-04-18T18:42:13.590Z,13.34
2023-04-18T18:44:40.279Z,13.39
2023-04-18T18:47:06.786Z,13.34
2023-04-18T18:49:33.635Z,13.20
2023-04-18T18:52:01.229Z,13.33
2023-04-18T18:54:28.158Z,13.39
2023-04-18T18:56:54.864Z,13.31
2023-04-18T18:59:21.503Z,13.28
2023-04-18T19:01:48.236Z,13.23
2023-04-18T19:04:15.106Z,13.21
2023-04-18T19:06:42.103Z,13.27
2023-04-18T19:09:08.691Z,13.07
2023-04-18T19:11:35.383Z,12.92
2023-04-18T19:14:02.995Z,12.93
2023-04-18T19:16:30.535Z,12.97
2023-04-18T19:18:57.223Z,13.18
2023-04-18T19:21:23.946Z,13.07
2023-04-18T19:23:50.506Z,13.03
2023-04-18T19:26:17.115Z,12.94
2023-04-18T19:28:43.884Z,12.96
2023-04-18T19:31:15.702Z,12.88
2023-04-18T19:33:42.573Z,12.81
2023-04-18T19:36:10.527Z,12.89
2023-04-18T19:38:37.379Z,12.86
2023-04-18T19:41:04.206Z,12.88
2023-04-18T19:43:31.130Z,12.75
2023-04-18T19:45:57.842Z,12.85
2023-04-18T19:48:24.729Z,12.85
2023-04-18T19:50:51.716Z,12.86
2023-04-18T19:53:19.184Z,12.71
2023-04-18T19:55:46.174Z,12.74
2023-04-18T19:58:33.371Z,12.46
2023-04-18T20:01:00.738Z,12.59
2023-04-18T20:03:27.507Z,12.67
2023-04-18T20:05:54.601Z,12.58
2023-04-18T20:08:21.144Z,12.44
2023-04-18T20:10:48.041Z,12.46
2023-04-18T20:13:14.620Z,12.39
2023-04-18T20:15:42.424Z,12.19
2023-04-18T20:18:09.043Z,12.14
2023-04-18T20:20:37.216Z,12.15
2023-04-18T20:23:03.872Z,12.24
2023-04-18T20:25:30.483Z,12.26
2023-04-18T20:27:57.100Z,12.30
2023-04-18T20:30:24.209Z,12.16
2023-04-18T20:32:51.381Z,11.95
2023-04-18T20:35:19.985Z,11.97
2023-04-18T20:37:46.589Z,11.92
2023-04-18T20:40:13.238Z,11.98
2023-04-18T20:42:40.016Z,11.88
2023-04-18T20:45:11.632Z,11.71
2023-04-18T20:47:40.510Z,11.70
2023-04-18T20:50:13.800Z,11.58
2023-04-18T20:52:42.932Z,11.67
2023-04-18T20:55:10.928Z,11.61
2023-04-18T20:57:37.528Z,11.64
2023-04-18T21:00:08.817Z,11.47
2023-04-18T21:02:36.120Z,11.37
2023-04-18T21:05:02.868Z,11.50
2023-04-18T21:07:29.878Z,11.59
2023-04-18T21:09:56.666Z,11.50
2023-04-18T21:12:23.299Z,11.48
2023-04-18T21:14:49.993Z,11.41
2023-04-18T21:17:20.134Z,11.30
2023-04-18T21:19:47.280Z,11.28
2023-04-18T21:22:15.058Z,11.11
2023-04-18T21:24:41.972Z,11.17
2023-04-18T21:27:08.958Z,11.13
2023-04-18T21:29:36.259Z,11.10
2023-04-18T21:32:02.998Z,11.20
2023-04-18T21:34:29.846Z,11.18
2023-04-18T21:36:57.826Z,11.17
2023-04-18T21:39:25.370Z,11.15
2023-04-18T21:41:52.550Z,11.06
2023-04-18T21:44:19.794Z,11.10
2023-04-18T21:46:46.281Z,11.23
2023-04-18T21:49:13.415Z,11.02
2023-04-18T21:51:39.907Z,10.96
2023-04-18T21:54:07.656Z,10.94
2023-04-18T21:56:34.410Z,11.01
2023-04-18T21:59:01.027Z,11.04
2023-04-18T22:01:27.667Z,10.91
2023-04-18T22:03:54.365Z,10.85
2023-04-18T22:06:22.004Z,10.81
2023-04-18T22:08:50.011Z,10.84
2023-04-18T22:11:16.556Z,10.85
2023-04-18T22:13:44.891Z,10.80
2023-04-18T22:16:11.586Z,10.81
2023-04-18T22:18:38.238Z,10.82
2023-04-18T22:21:04.917Z,10.69
2023-04-18T22:23:31.664Z,10.82
2023-04-18T22:25:58.372Z,10.72
2023-04-18T22:34:16.229Z,10.50
2023-04-18T22:36:43.936Z,10.44
2023-04-18T22:39:12.181Z,10.49
2023-04-18T22:41:38.708Z,10.40
2023-04-18T22:44:05.588Z,10.44
2023-04-18T22:46:32.905Z,10.32
2023-04-18T22:48:59.679Z,10.35
2023-04-18T22:51:28.528Z,10.31
2023-04-18T22:53:56.116Z,10.36
2023-04-18T22:56:22.689Z,10.38
2023-04-18T22:58:49.278Z,10.34
2023-04-18T23:01:15.890Z,10.28
2023-04-18T23:03:42.700Z,10.27
2023-04-18T23:06:10.210Z,10.26
2023-04-18T23:08:36.653Z,10.35
2023-04-18T23:11:03.198Z,10.23
2023-04-18T23:13:29.888Z,10.03
2023-04-18T23:15:56.429Z,10.04
2023-04-18T23:18:22.944Z,9.88
2023-04-18T23:20:49.518Z,9.70
2023-04-18T23:23:16.054Z,9.85
2023-04-18T23:25:42.705Z,9.91
2023-04-18T23:28:10.473Z,9.85
2023-04-18T23:30:37.249Z,9.73
2023-04-18T23:33:03.832Z,9.74
2023-04-18T23:35:30.649Z,9.87
2023-04-18T23:37:57.595Z,9.69
2023-04-18T23:40:24.317Z,9.59
2023-04-18T23:42:50.861Z,9.66
2023-04-18T23:45:17.389Z,9.60
2023-04-18T23:47:43.972Z,9.55
2023-04-18T23:50:12.057Z,9.52
2023-04-18T23:52:38.748Z,9.34
2023-04-18T23:55:05.909Z,9.38
2023-04-18T23:57:32.681Z,9.33
2023-04-18T23:59:59.197Z,9.36
